createdAt,value
2019-01-15T00:02:09.162Z,4.40
2019-01-15T00:04:39.313Z,4.50
2019-01-15T00:07:09.374Z,4.60
2019-01-15T00:09:39.448Z,4.60
2019-01-15T00:12:09.554Z,4.60
2019-01-15T00:14:39.711Z,4.60
2019-01-15T00:17:09.970Z,4.60
2019-01-15T00:19:40.283Z,4.70
2019-01-15T00:22:10.424Z,4.70
2019-01-15T00:24:40.570Z,4.70
2019-01-15T00:27:10.766Z,4.70
2019-01-15T00:29:40.921Z,4.70
2019-01-15T00:32:11.143Z,4.70
2019-01-15T00:34:41.345Z,4.70
2019-01-15T00:37:11.504Z,4.60
2019-01-15T00:39:41.728Z,4.50
2019-01-15T00:42:15.529Z,4.50
2019-01-15T00:44:43.710Z,4.40
2019-01-15T00:47:13.892Z,4.30
2019-01-15T00:49:44.040Z,4.20
2019-01-15T00:52:14.121Z,4.20
2019-01-15T00:54:44.282Z,4.10
2019-01-15T00:57:14.356Z,4.10
2019-01-15T00:59:44.449Z,4.10
2019-01-15T01:02:14.602Z,4.10
2019-01-15T01:04:44.859Z,4.00
2019-01-15T01:07:15.107Z,3.90
2019-01-15T01:09:45.355Z,3.80
2019-01-15T01:12:22.054Z,3.80
2019-01-15T01:14:47.234Z,3.70
2019-01-15T01:17:17.277Z,3.70
2019-01-15T01:19:47.539Z,3.70
2019-01-15T01:22:17.583Z,3.70
2019-01-15T01:24:47.642Z,3.60
2019-01-15T01:27:17.678Z,3.60
2019-01-15T01:29:47.848Z,3.60
2019-01-15T01:32:17.938Z,3.70
2019-01-15T01:34:48.078Z,3.70
2019-01-15T01:37:18.226Z,3.80
2019-01-15T01:39:48.428Z,3.80
2019-01-15T01:42:18.750Z,3.80
2019-01-15T01:44:48.896Z,3.80
2019-01-15T01:47:19.839Z,3.80
2019-01-15T01:49:50.016Z,3.80
2019-01-15T01:52:20.225Z,3.70
2019-01-15T01:54:50.645Z,3.70
2019-01-15T01:57:20.741Z,3.70
2019-01-15T01:59:50.840Z,3.60
2019-01-15T02:02:20.895Z,3.60
2019-01-15T02:04:50.995Z,3.60
2019-01-15T02:07:21.081Z,3.60
2019-01-15T02:09:51.228Z,3.60
2019-01-15T02:12:21.308Z,3.50
2019-01-15T02:14:51.638Z,3.50
2019-01-15T02:17:21.825Z,3.40
2019-01-15T02:19:52.030Z,3.40
2019-01-15T02:22:22.150Z,3.40
2019-01-15T02:24:52.197Z,3.40
2019-01-15T02:27:22.652Z,3.40
2019-01-15T02:29:52.731Z,3.30
2019-01-15T02:32:22.997Z,3.20
2019-01-15T02:34:53.104Z,3.10
2019-01-15T02:37:23.206Z,3.00
2019-01-15T02:39:53.246Z,2.90
2019-01-15T02:42:23.527Z,2.90
2019-01-15T02:44:53.697Z,3.00
2019-01-15T02:47:23.822Z,3.10
2019-01-15T02:49:54.016Z,3.20
2019-01-15T02:52:24.323Z,3.30
2019-01-15T02:54:54.449Z,3.40
2019-01-15T02:57:24.568Z,3.40
2019-01-15T02:59:54.875Z,3.40
2019-01-15T03:02:25.040Z,3.50
2019-01-15T03:04:55.280Z,3.40
2019-01-15T03:07:25.416Z,3.40
2019-01-15T03:09:55.612Z,3.50
2019-01-15T03:12:25.911Z,3.50
2019-01-15T03:14:56.082Z,3.60
2019-01-15T03:17:26.342Z,3.60
2019-01-15T03:19:56.409Z,3.60
2019-01-15T03:22:26.533Z,3.70
2019-01-15T03:24:57.320Z,3.70
2019-01-15T03:27:27.453Z,3.70
2019-01-15T03:29:58.477Z,3.70
2019-01-15T03:32:28.543Z,3.80
2019-01-15T03:35:00.541Z,3.80
2019-01-15T03:37:32.261Z,3.80
2019-01-15T03:40:02.352Z,3.80
2019-01-15T03:42:34.174Z,3.90
2019-01-15T03:45:06.235Z,3.90
2019-01-15T03:47:36.414Z,3.90
2019-01-15T03:50:07.067Z,3.90
2019-01-15T03:52:37.206Z,3.90
2019-01-15T03:55:07.620Z,4.00
2019-01-15T03:57:38.438Z,4.00
2019-01-15T04:00:15.473Z,4.00
2019-01-15T04:02:45.802Z,4.10
2019-01-15T04:05:17.729Z,4.20
2019-01-15T04:07:49.743Z,4.30
2019-01-15T04:10:19.891Z,4.30
2019-01-15T04:12:50.164Z,4.40
2019-01-15T04:15:20.319Z,4.40
2019-01-15T04:17:50.496Z,4.40
2019-01-15T04:20:20.677Z,4.40
2019-01-15T04:22:50.874Z,4.40
2019-01-15T04:25:21.165Z,4.40
2019-01-15T04:27:51.296Z,4.40
2019-01-15T04:30:23.075Z,4.40
2019-01-15T04:32:53.108Z,4.40
2019-01-15T04:35:23.257Z,4.40
2019-01-15T04:37:53.385Z,4.40
2019-01-15T04:40:23.614Z,4.40
2019-01-15T04:42:53.930Z,4.40
2019-01-15T04:45:24.856Z,4.40
2019-01-15T04:47:54.976Z,4.40
2019-01-15T04:50:25.043Z,4.40
2019-01-15T04:53:00.190Z,4.50
2019-01-15T04:55:30.405Z,4.50
2019-01-15T04:58:00.485Z,4.50
2019-01-15T05:00:30.627Z,4.60
2019-01-15T05:03:02.259Z,4.60
2019-01-15T05:05:32.396Z,4.60
2019-01-15T05:08:02.427Z,4.70
2019-01-15T05:10:32.514Z,4.70
2019-01-15T05:13:02.603Z,4.70
2019-01-15T05:15:35.545Z,4.70
2019-01-15T05:18:05.638Z,4.70
2019-01-15T05:20:35.741Z,4.70
2019-01-15T05:23:05.881Z,4.70
2019-01-15T05:25:36.018Z,4.70
2019-01-15T05:28:06.357Z,4.70
2019-01-15T05:30:36.437Z,4.60
2019-01-15T05:33:06.533Z,4.60
2019-01-15T05:35:36.581Z,4.60
2019-01-15T05:38:07.552Z,4.60
2019-01-15T05:40:37.900Z,4.60
2019-01-15T05:43:08.061Z,4.60
2019-01-15T05:45:40.171Z,4.60
2019-01-15T05:48:32.134Z,4.60
2019-01-15T05:51:21.270Z,4.60
2019-01-15T05:53:51.353Z,4.60
2019-01-15T05:56:21.593Z,4.70
2019-01-15T05:58:51.755Z,4.70
2019-01-15T06:01:21.987Z,4.70
2019-01-15T06:03:52.124Z,4.70
2019-01-15T06:06:22.283Z,4.80
2019-01-15T06:08:52.341Z,4.80
2019-01-15T06:11:22.420Z,4.80
2019-01-15T06:13:52.543Z,4.80
2019-01-15T06:16:22.696Z,4.90
2019-01-15T06:18:52.855Z,4.90
2019-01-15T06:21:22.997Z,4.90
2019-01-15T06:23:53.062Z,4.90
2019-01-15T06:26:23.246Z,4.90
2019-01-15T06:28:53.755Z,5.00
2019-01-15T06:31:23.962Z,5.00
2019-01-15T06:33:54.118Z,5.00
2019-01-15T06:36:24.308Z,5.00
2019-01-15T06:38:54.391Z,5.10
2019-01-15T06:41:24.471Z,5.10
2019-01-15T06:43:54.634Z,5.10
2019-01-15T06:46:24.957Z,5.10
2019-01-15T06:48:55.074Z,5.10
2019-01-15T06:51:25.341Z,5.10
2019-01-15T06:53:55.486Z,5.10
2019-01-15T06:56:25.671Z,5.00
2019-01-15T06:58:55.933Z,5.10
2019-01-15T07:01:26.074Z,5.20
2019-01-15T07:03:56.271Z,5.20
2019-01-15T07:06:26.608Z,5.20
2019-01-15T07:08:57.562Z,5.20
2019-01-15T07:11:27.780Z,5.20
2019-01-15T07:13:58.236Z,5.20
2019-01-15T07:16:28.865Z,5.20
2019-01-15T07:18:58.994Z,5.20
2019-01-15T07:21:29.208Z,5.20
2019-01-15T07:23:59.343Z,5.20
2019-01-15T07:26:29.484Z,5.20
2019-01-15T07:28:59.620Z,5.20
2019-01-15T07:31:29.835Z,5.20
2019-01-15T07:33:59.901Z,5.20
2019-01-15T07:36:30.141Z,5.20
2019-01-15T07:39:00.170Z,5.20
2019-01-15T07:41:30.246Z,5.20
2019-01-15T07:44:04.353Z,5.20
2019-01-15T07:46:32.161Z,5.10
2019-01-15T07:49:02.203Z,5.10
2019-01-15T07:51:32.357Z,5.10
2019-01-15T07:54:02.398Z,5.10
2019-01-15T07:56:32.576Z,5.10
2019-01-15T07:59:02.807Z,5.10
2019-01-15T08:01:32.918Z,5.10
2019-01-15T08:04:03.045Z,5.10
2019-01-15T08:06:33.226Z,5.10
2019-01-15T08:09:04.669Z,5.20
2019-01-15T08:11:34.839Z,5.20
2019-01-15T08:14:11.717Z,5.20
2019-01-15T08:16:36.879Z,5.20
2019-01-15T08:19:07.142Z,5.20
2019-01-15T08:21:37.305Z,5.20
2019-01-15T08:24:07.485Z,5.30
2019-01-15T08:26:37.751Z,5.30
2019-01-15T08:29:07.869Z,5.30
2019-01-15T08:31:37.920Z,5.30
2019-01-15T08:34:07.936Z,5.30
2019-01-15T08:36:38.028Z,5.30
2019-01-15T08:39:08.834Z,5.40
2019-01-15T08:41:39.051Z,5.50
2019-01-15T08:44:10.211Z,5.60
2019-01-15T08:46:43.934Z,5.60
2019-01-15T08:49:14.116Z,5.60
2019-01-15T08:51:44.745Z,5.70
2019-01-15T08:54:15.137Z,5.70
2019-01-15T08:56:45.225Z,5.80
2019-01-15T08:59:15.281Z,5.80
2019-01-15T09:01:45.359Z,5.90
2019-01-15T09:04:15.503Z,6.00
2019-01-15T09:06:45.901Z,6.00
2019-01-15T09:09:15.965Z,6.00
2019-01-15T09:11:46.257Z,6.10
2019-01-15T09:14:16.462Z,6.10
2019-01-15T09:16:46.618Z,6.20
2019-01-15T09:19:16.737Z,6.30
2019-01-15T09:21:47.075Z,6.30
2019-01-15T09:24:18.888Z,6.30
2019-01-15T09:26:49.019Z,6.30
2019-01-15T09:29:19.667Z,6.30
2019-01-15T09:31:49.902Z,6.30
2019-01-15T09:34:20.027Z,6.30
2019-01-15T09:36:50.217Z,6.40
2019-01-15T09:39:20.289Z,6.40
2019-01-15T09:41:50.660Z,6.40
2019-01-15T09:44:22.257Z,6.40
2019-01-15T09:46:52.412Z,6.50
2019-01-15T09:49:22.611Z,6.50
2019-01-15T09:51:52.740Z,6.50
2019-01-15T09:54:22.876Z,6.60
2019-01-15T09:56:52.936Z,6.60
2019-01-15T09:59:23.053Z,6.60
2019-01-15T10:01:54.787Z,6.70
2019-01-15T10:04:24.845Z,6.70
2019-01-15T10:06:55.078Z,6.70
2019-01-15T10:09:25.293Z,6.80
2019-01-15T10:11:55.439Z,6.80
2019-01-15T10:14:25.562Z,6.80
2019-01-15T10:16:55.652Z,6.80
2019-01-15T10:19:25.793Z,6.80
2019-01-15T10:21:56.173Z,6.80
2019-01-15T10:24:26.381Z,6.90
2019-01-15T10:26:58.059Z,6.90
2019-01-15T10:29:28.833Z,6.90
2019-01-15T10:32:41.280Z,6.90
2019-01-15T10:35:56.472Z,7.00
2019-01-15T10:38:28.050Z,7.20
2019-01-15T10:40:58.669Z,7.30
2019-01-15T10:43:30.738Z,7.40
2019-01-15T10:46:00.891Z,7.50
2019-01-15T10:48:31.015Z,7.60
2019-01-15T10:51:01.199Z,7.60
2019-01-15T10:53:31.258Z,7.80
2019-01-15T10:56:01.357Z,7.90
2019-01-15T10:58:31.507Z,8.00
2019-01-15T11:01:01.609Z,8.00
2019-01-15T11:03:31.762Z,8.00
2019-01-15T11:06:02.054Z,8.00
2019-01-15T11:08:32.211Z,8.00
2019-01-15T11:11:02.327Z,8.10
2019-01-15T11:13:32.493Z,8.10
2019-01-15T11:16:02.571Z,8.20
2019-01-15T11:18:32.668Z,8.20
2019-01-15T11:21:02.889Z,8.20
2019-01-15T11:23:33.046Z,8.20
2019-01-15T11:26:03.334Z,8.20
2019-01-15T11:28:33.485Z,8.30
2019-01-15T11:31:03.710Z,8.60
2019-01-15T11:33:33.819Z,8.90
2019-01-15T11:36:04.068Z,8.90
2019-01-15T11:38:34.239Z,9.00
2019-01-15T11:41:04.517Z,9.10
2019-01-15T11:43:34.715Z,8.90
2019-01-15T11:46:04.931Z,8.80
2019-01-15T11:48:35.113Z,8.70
2019-01-15T11:51:05.660Z,8.70
2019-01-15T11:53:35.774Z,8.60
2019-01-15T11:56:05.930Z,8.50
2019-01-15T11:58:36.211Z,8.50
2019-01-15T12:01:28.152Z,8.50
2019-01-15T12:04:15.878Z,8.60
2019-01-15T12:07:10.894Z,8.70
2019-01-15T12:10:00.199Z,8.70
2019-01-15T12:12:48.739Z,8.70
2019-01-15T12:15:49.699Z,8.80
2019-01-15T12:18:44.728Z,8.80
2019-01-15T12:21:30.615Z,8.90
2019-01-15T12:24:22.729Z,9.00
2019-01-15T12:27:00.408Z,9.00
2019-01-15T12:29:48.150Z,8.90
2019-01-15T12:32:35.665Z,8.80
2019-01-15T12:35:40.484Z,8.70
2019-01-15T12:38:35.411Z,8.60
2019-01-15T12:41:42.851Z,8.60
2019-01-15T12:44:48.789Z,8.60
2019-01-15T12:47:37.965Z,8.60
2019-01-15T12:50:27.668Z,8.60
2019-01-15T12:53:12.958Z,8.60
2019-01-15T12:56:05.208Z,8.60
2019-01-15T12:59:13.708Z,8.50
2019-01-15T13:01:58.098Z,8.50
2019-01-15T13:05:02.237Z,8.50
2019-01-15T13:07:49.996Z,8.50
2019-01-15T13:10:37.498Z,8.50
2019-01-15T13:13:21.132Z,8.60
2019-01-15T13:16:10.215Z,8.60
2019-01-15T13:18:51.652Z,8.60
2019-01-15T13:21:55.634Z,8.60
2019-01-15T13:24:50.356Z,8.50
2019-01-15T13:27:47.686Z,8.50
2019-01-15T13:30:42.625Z,8.50
2019-01-15T13:33:20.379Z,8.40
2019-01-15T13:36:12.507Z,8.40
2019-01-15T13:39:10.342Z,8.40
2019-01-15T13:42:14.536Z,8.30
2019-01-15T13:45:02.505Z,8.30
2019-01-15T13:47:51.765Z,8.20
2019-01-15T13:50:39.486Z,8.20
2019-01-15T13:53:32.344Z,8.20
2019-01-15T13:56:20.132Z,8.20
2019-01-15T13:59:12.113Z,8.20
2019-01-15T14:01:56.747Z,8.10
2019-01-15T14:04:45.825Z,8.10
2019-01-15T14:07:40.807Z,8.10
2019-01-15T14:10:33.958Z,8.20
2019-01-15T14:13:21.748Z,8.20
2019-01-15T14:16:15.118Z,8.20
2019-01-15T14:19:02.834Z,8.30
2019-01-15T14:21:52.028Z,8.30
2019-01-15T14:24:41.172Z,8.30
2019-01-15T14:27:24.919Z,8.30
2019-01-15T14:30:17.170Z,8.30
2019-01-15T14:33:15.724Z,8.30
2019-01-15T14:36:07.895Z,8.30
2019-01-15T14:39:12.099Z,8.20
2019-01-15T14:42:10.112Z,8.20
2019-01-15T14:44:59.287Z,8.20
2019-01-15T14:48:06.639Z,8.20
2019-01-15T14:50:55.918Z,8.20
2019-01-15T14:53:44.668Z,8.20
2019-01-15T14:56:48.781Z,8.20
2019-01-15T14:59:43.855Z,8.20
2019-01-15T15:02:32.348Z,8.20
2019-01-15T15:05:36.585Z,8.10
2019-01-15T15:08:29.414Z,8.10
2019-01-15T15:11:18.495Z,8.10
2019-01-15T15:13:57.478Z,8.00
2019-01-15T15:16:45.217Z,8.00
2019-01-15T15:19:33.134Z,8.00
2019-01-15T15:22:28.496Z,8.00
2019-01-15T15:25:17.609Z,7.90
2019-01-15T15:28:09.803Z,7.80
2019-01-15T15:30:59.523Z,7.80
2019-01-15T15:34:09.823Z,7.80
2019-01-15T15:37:11.025Z,7.70
2019-01-15T15:40:05.893Z,7.70
2019-01-15T15:42:57.818Z,7.60
2019-01-15T15:45:45.625Z,7.60
2019-01-15T15:48:46.655Z,7.60
2019-01-15T15:51:31.563Z,7.60
2019-01-15T15:54:23.554Z,7.60
2019-01-15T15:57:18.730Z,7.60
2019-01-15T16:00:16.954Z,7.50
2019-01-15T16:03:05.982Z,7.50
2019-01-15T16:05:59.110Z,7.50
2019-01-15T16:08:54.217Z,7.50
2019-01-15T16:11:45.173Z,7.50
2019-01-15T16:14:35.007Z,7.50
2019-01-15T16:17:21.434Z,7.50
2019-01-15T16:20:03.855Z,7.50
2019-01-15T16:22:51.439Z,7.50
2019-01-15T16:25:55.461Z,7.60
2019-01-15T16:28:47.474Z,7.60
2019-01-15T16:31:28.766Z,7.60
2019-01-15T16:34:23.947Z,7.60
2019-01-15T16:37:17.275Z,7.50
2019-01-15T16:40:15.265Z,7.60
2019-01-15T16:43:03.738Z,7.60
2019-01-15T16:45:46.326Z,7.60
2019-01-15T16:48:25.137Z,7.50
2019-01-15T16:51:25.292Z,7.60
2019-01-15T16:54:20.597Z,7.60
2019-01-15T16:57:18.499Z,7.50
2019-01-15T17:00:16.707Z,7.60
2019-01-15T17:03:17.866Z,7.60
2019-01-15T17:06:16.095Z,7.50
2019-01-15T17:09:03.985Z,7.60
2019-01-15T17:11:55.896Z,7.60
2019-01-15T17:14:50.916Z,7.60
2019-01-15T17:17:39.372Z,7.60
2019-01-15T17:20:31.577Z,7.60
2019-01-15T17:23:08.815Z,7.60
2019-01-15T17:26:01.124Z,7.60
2019-01-15T17:28:45.980Z,7.60
2019-01-15T17:31:34.597Z,7.60
2019-01-15T17:34:25.005Z,7.60
2019-01-15T17:37:28.030Z,7.60
2019-01-15T17:40:20.324Z,7.60
2019-01-15T17:43:09.435Z,7.60
2019-01-15T17:45:51.737Z,7.50
2019-01-15T17:48:49.720Z,7.50
2019-01-15T17:51:38.826Z,7.50
2019-01-15T17:54:26.352Z,7.50
2019-01-15T17:57:07.281Z,7.50
2019-01-15T18:00:05.835Z,7.50
2019-01-15T18:03:07.369Z,7.50
2019-01-15T18:05:54.807Z,7.50
2019-01-15T18:08:36.004Z,7.50
2019-01-15T18:11:32.883Z,7.50
2019-01-15T18:14:37.047Z,7.50
2019-01-15T18:17:25.921Z,7.50
2019-01-15T18:20:16.083Z,7.50
2019-01-15T18:23:07.977Z,7.50
2019-01-15T18:26:00.200Z,7.50
2019-01-15T18:28:38.613Z,7.50
2019-01-15T18:31:22.576Z,7.50
2019-01-15T18:34:11.058Z,7.50
2019-01-15T18:37:18.378Z,7.60
2019-01-15T18:40:05.966Z,7.50
2019-01-15T18:42:53.849Z,7.60
2019-01-15T18:45:42.151Z,7.60
2019-01-15T18:48:42.591Z,7.60
2019-01-15T18:51:28.901Z,7.60
2019-01-15T18:54:22.286Z,7.60
2019-01-15T18:57:20.207Z,7.60
2019-01-15T19:00:07.730Z,7.60
2019-01-15T19:02:46.577Z,7.60
2019-01-15T19:05:35.272Z,7.60
2019-01-15T19:08:24.705Z,7.60
2019-01-15T19:11:21.068Z,7.60
2019-01-15T19:14:15.983Z,7.60
2019-01-15T19:17:03.334Z,7.60
2019-01-15T19:19:47.264Z,7.60
2019-01-15T19:22:45.344Z,7.60
2019-01-15T19:25:37.372Z,7.60
2019-01-15T19:28:21.053Z,7.60
2019-01-15T19:31:07.059Z,7.60
2019-01-15T19:34:05.245Z,7.60
2019-01-15T19:36:54.651Z,7.60
2019-01-15T19:39:43.896Z,7.70
2019-01-15T19:42:32.191Z,7.70
2019-01-15T19:45:21.452Z,7.60
2019-01-15T19:48:13.376Z,7.60
2019-01-15T19:51:02.480Z,7.70
2019-01-15T19:53:50.317Z,7.60
2019-01-15T19:56:38.050Z,7.60
2019-01-15T19:59:24.002Z,7.60
2019-01-15T20:02:11.832Z,7.60
2019-01-15T20:04:54.923Z,7.60
2019-01-15T20:07:39.924Z,7.60
2019-01-15T20:10:22.268Z,7.60
2019-01-15T20:13:02.916Z,7.60
2019-01-15T20:16:03.877Z,7.60
2019-01-15T20:19:05.185Z,7.60
2019-01-15T20:21:53.040Z,7.60
2019-01-15T20:24:33.593Z,7.60
2019-01-15T20:27:22.870Z,7.60
2019-01-15T20:30:13.648Z,7.60
2019-01-15T20:33:17.915Z,7.60
2019-01-15T20:36:05.704Z,7.60
2019-01-15T20:38:49.780Z,7.60
2019-01-15T20:41:38.594Z,7.50
2019-01-15T20:44:45.883Z,7.50
2019-01-15T20:47:35.306Z,7.50
2019-01-15T20:50:26.811Z,7.50
2019-01-15T20:53:31.309Z,7.50
2019-01-15T20:56:32.577Z,7.50
2019-01-15T20:59:21.771Z,7.50
2019-01-15T21:02:20.785Z,7.40
2019-01-15T21:05:27.801Z,7.40
2019-01-15T21:08:10.581Z,7.40
2019-01-15T21:10:58.557Z,7.30
2019-01-15T21:13:50.672Z,7.20
2019-01-15T21:16:38.194Z,7.10
2019-01-15T21:19:30.097Z,7.10
2019-01-15T21:22:22.295Z,7.10
2019-01-15T21:25:05.334Z,7.00
2019-01-15T21:27:56.676Z,7.00
2019-01-15T21:31:01.017Z,6.90
2019-01-15T21:33:48.498Z,6.90
2019-01-15T21:36:36.018Z,6.90
2019-01-15T21:39:26.410Z,6.90
2019-01-15T21:42:15.564Z,6.90
2019-01-15T21:45:03.189Z,6.80
2019-01-15T21:47:58.108Z,6.90
2019-01-15T21:50:59.395Z,6.80
2019-01-15T21:53:48.078Z,6.80
2019-01-15T21:56:30.952Z,6.80
2019-01-15T21:59:35.285Z,6.80
2019-01-15T22:02:33.274Z,6.80
2019-01-15T22:05:29.480Z,6.80
2019-01-15T22:08:17.183Z,6.80
2019-01-15T22:11:15.450Z,6.80
2019-01-15T22:14:10.383Z,6.80
2019-01-15T22:16:55.130Z,6.80
2019-01-15T22:19:47.757Z,6.80
2019-01-15T22:22:39.179Z,6.80
2019-01-15T22:25:27.107Z,6.80
2019-01-15T22:28:27.378Z,6.80
2019-01-15T22:31:37.093Z,6.80
2019-01-15T22:34:26.519Z,6.80
2019-01-15T22:37:14.078Z,6.80
2019-01-15T22:40:06.403Z,6.80
2019-01-15T22:42:56.640Z,6.80
2019-01-15T22:45:48.818Z,6.80
2019-01-15T22:48:41.049Z,6.80
2019-01-15T22:51:28.697Z,6.90
2019-01-15T22:54:22.339Z,6.90
2019-01-15T22:57:14.935Z,6.90
2019-01-15T23:00:16.220Z,6.80
2019-01-15T23:03:07.125Z,6.80
2019-01-15T23:05:46.726Z,6.70
2019-01-15T23:08:33.344Z,6.70
2019-01-15T23:11:31.509Z,6.70
2019-01-15T23:14:12.735Z,6.70
2019-01-15T23:16:47.824Z,6.70
2019-01-15T23:19:37.689Z,6.70
2019-01-15T23:22:29.956Z,6.70
2019-01-15T23:25:17.780Z,6.70
2019-01-15T23:28:11.590Z,6.70
2019-01-15T23:31:12.822Z,6.70
2019-01-15T23:34:00.286Z,6.80
2019-01-15T23:37:01.518Z,6.80
2019-01-15T23:39:52.017Z,6.80
2019-01-15T23:42:39.630Z,6.80
2019-01-15T23:45:37.622Z,6.80
2019-01-15T23:48:25.144Z,6.90
2019-01-15T23:51:12.703Z,6.90
2019-01-15T23:54:03.311Z,6.80
2019-01-15T23:56:51.027Z,6.80
2019-01-15T23:59:43.107Z,6.70
